createdAt,value
2019-03-27T00:02:01.165Z,2.90
2019-03-27T00:04:34.929Z,3.31
2019-03-27T00:07:08.800Z,2.85
2019-03-27T00:09:43.581Z,2.96
2019-03-27T00:12:18.554Z,3.17
2019-03-27T00:14:52.198Z,3.12
2019-03-27T00:17:26.067Z,2.61
2019-03-27T00:20:00.260Z,2.77
2019-03-27T00:22:33.843Z,3.06
2019-03-27T00:25:09.763Z,3.51
2019-03-27T00:27:43.346Z,3.24
2019-03-27T00:30:16.954Z,3.51
2019-03-27T00:32:50.680Z,2.78
2019-03-27T00:35:43.548Z,3.05
2019-03-27T00:38:17.085Z,3.35
2019-03-27T00:40:51.038Z,3.23
2019-03-27T00:43:24.603Z,3.42
2019-03-27T00:45:58.135Z,3.92
2019-03-27T00:48:31.809Z,3.62
2019-03-27T00:51:09.758Z,3.22
2019-03-27T00:53:44.560Z,3.48
2019-03-27T00:56:18.050Z,3.33
2019-03-27T00:58:52.330Z,3.36
2019-03-27T01:01:25.829Z,3.33
2019-03-27T01:03:59.389Z,3.30
2019-03-27T01:06:32.926Z,3.70
2019-03-27T01:09:07.102Z,3.80
2019-03-27T01:11:40.871Z,3.88
2019-03-27T01:14:16.349Z,3.53
2019-03-27T01:16:49.807Z,3.91
2019-03-27T01:19:23.304Z,4.02
2019-03-27T01:21:57.155Z,4.36
2019-03-27T01:24:30.695Z,4.74
2019-03-27T01:27:04.357Z,4.65
2019-03-27T01:29:37.807Z,4.29
2019-03-27T01:32:12.922Z,4.44
2019-03-27T01:34:46.830Z,4.53
2019-03-27T01:37:21.389Z,4.10
2019-03-27T01:39:54.941Z,4.65
2019-03-27T01:42:28.408Z,4.15
2019-03-27T01:45:03.462Z,4.81
2019-03-27T01:47:37.144Z,4.60
2019-03-27T01:50:11.437Z,4.61
2019-03-27T01:52:44.760Z,4.35
2019-03-27T01:55:19.553Z,4.82
2019-03-27T01:57:53.161Z,4.64
2019-03-27T02:00:26.978Z,4.77
2019-03-27T02:03:01.184Z,4.55
2019-03-27T02:05:35.115Z,5.07
2019-03-27T02:08:08.862Z,5.37
2019-03-27T02:10:43.220Z,5.23
2019-03-27T02:13:18.252Z,5.77
2019-03-27T02:16:01.229Z,5.93
2019-03-27T02:18:26.765Z,6.26
2019-03-27T02:21:00.466Z,5.69
2019-03-27T02:23:33.939Z,6.02
2019-03-27T02:26:07.377Z,5.90
2019-03-27T02:28:40.875Z,6.29
2019-03-27T02:31:14.473Z,5.99
2019-03-27T02:33:48.156Z,6.28
2019-03-27T02:36:22.069Z,6.27
2019-03-27T02:38:55.761Z,6.45
2019-03-27T02:41:29.540Z,6.80
2019-03-27T02:44:03.362Z,6.07
2019-03-27T02:46:37.229Z,6.09
2019-03-27T02:49:10.787Z,5.73
2019-03-27T02:51:45.756Z,5.09
2019-03-27T02:54:19.188Z,6.39
2019-03-27T02:56:52.511Z,6.08
2019-03-27T02:59:26.217Z,5.67
2019-03-27T03:02:00.009Z,5.24
2019-03-27T03:04:33.755Z,5.49
2019-03-27T03:07:07.363Z,6.14
2019-03-27T03:09:42.514Z,5.44
2019-03-27T03:12:16.054Z,5.82
2019-03-27T03:14:49.798Z,5.80
2019-03-27T03:17:23.384Z,6.09
2019-03-27T03:19:57.139Z,6.24
2019-03-27T03:22:30.731Z,5.86
2019-03-27T03:25:05.709Z,6.24
2019-03-27T03:27:39.346Z,6.53
2019-03-27T03:30:14.320Z,6.45
2019-03-27T03:32:47.775Z,6.27
2019-03-27T03:35:21.265Z,6.14
2019-03-27T03:37:54.993Z,6.14
2019-03-27T03:40:28.861Z,6.26
2019-03-27T03:43:02.873Z,6.17
2019-03-27T03:45:36.400Z,6.06
2019-03-27T03:48:09.905Z,6.60
2019-03-27T03:50:45.413Z,6.76
2019-03-27T03:53:19.214Z,5.87
2019-03-27T03:55:53.742Z,6.58
2019-03-27T03:58:30.063Z,7.09
2019-03-27T04:01:04.839Z,7.25
2019-03-27T04:03:40.356Z,7.00
2019-03-27T04:06:14.083Z,6.91
2019-03-27T04:08:47.974Z,7.07
2019-03-27T04:11:21.953Z,7.13
2019-03-27T04:13:57.379Z,7.35
2019-03-27T04:16:31.173Z,5.87
2019-03-27T04:19:04.983Z,6.20
2019-03-27T04:21:38.840Z,5.68
2019-03-27T04:24:12.616Z,5.26
2019-03-27T04:26:46.359Z,5.30
2019-03-27T04:29:20.093Z,5.18
2019-03-27T04:31:56.091Z,4.73
2019-03-27T04:34:29.676Z,5.51
2019-03-27T04:37:03.486Z,6.48
2019-03-27T04:39:37.378Z,6.80
2019-03-27T04:42:11.031Z,6.79
2019-03-27T04:44:44.721Z,6.40
2019-03-27T04:47:31.536Z,5.09
2019-03-27T04:49:53.417Z,5.64
2019-03-27T04:52:26.969Z,5.38
2019-03-27T04:55:02.135Z,5.36
2019-03-27T04:57:37.244Z,5.87
2019-03-27T05:00:11.496Z,6.16
2019-03-27T05:02:45.186Z,6.80
2019-03-27T05:05:18.920Z,6.88
2019-03-27T05:07:53.968Z,6.64
2019-03-27T05:10:27.502Z,5.92
2019-03-27T05:13:01.952Z,5.52
2019-03-27T05:15:35.927Z,5.22
2019-03-27T05:18:09.412Z,5.53
2019-03-27T05:20:43.188Z,5.59
2019-03-27T05:23:16.959Z,5.65
2019-03-27T05:25:50.651Z,5.65
2019-03-27T05:28:24.261Z,5.23
2019-03-27T05:30:57.987Z,5.10
2019-03-27T05:33:32.816Z,5.35
2019-03-27T05:36:06.843Z,5.43
2019-03-27T05:38:40.601Z,5.99
2019-03-27T05:41:14.332Z,6.10
2019-03-27T05:43:53.083Z,6.42
2019-03-27T05:46:27.030Z,6.43
2019-03-27T05:49:00.428Z,6.32
2019-03-27T05:51:33.967Z,6.75
2019-03-27T05:54:09.443Z,6.91
2019-03-27T05:56:42.989Z,7.01
2019-03-27T05:59:18.319Z,6.97
2019-03-27T06:01:52.373Z,7.26
2019-03-27T06:04:26.023Z,6.79
2019-03-27T06:06:59.517Z,7.15
2019-03-27T06:09:33.219Z,6.66
2019-03-27T06:12:06.708Z,5.36
2019-03-27T06:14:40.319Z,5.40
2019-03-27T06:17:15.296Z,5.05
2019-03-27T06:19:49.502Z,4.91
2019-03-27T06:22:24.256Z,4.86
2019-03-27T06:24:59.581Z,4.14
2019-03-27T06:27:33.440Z,4.51
2019-03-27T06:30:08.610Z,4.21
2019-03-27T06:32:42.828Z,4.92
2019-03-27T06:35:19.967Z,4.20
2019-03-27T06:37:52.656Z,4.50
2019-03-27T06:40:30.118Z,4.44
2019-03-27T06:43:02.095Z,3.96
2019-03-27T06:45:36.011Z,4.31
2019-03-27T06:48:09.764Z,4.71
2019-03-27T06:50:45.118Z,4.63
2019-03-27T06:53:19.025Z,4.95
2019-03-27T06:55:53.352Z,4.81
2019-03-27T06:58:27.205Z,4.73
2019-03-27T07:01:01.178Z,4.64
2019-03-27T07:03:35.017Z,4.75
2019-03-27T07:06:13.105Z,4.80
2019-03-27T07:08:48.679Z,5.13
2019-03-27T07:11:42.167Z,4.83
2019-03-27T07:14:35.409Z,4.87
2019-03-27T07:17:09.149Z,4.66
2019-03-27T07:19:44.464Z,4.71
2019-03-27T07:22:18.735Z,4.47
2019-03-27T07:24:53.013Z,4.55
2019-03-27T07:27:26.969Z,4.73
2019-03-27T07:30:01.701Z,4.93
2019-03-27T07:32:35.465Z,5.05
2019-03-27T07:35:09.769Z,5.00
2019-03-27T07:37:43.530Z,4.95
2019-03-27T07:40:21.206Z,4.59
2019-03-27T07:42:55.384Z,4.67
2019-03-27T07:45:29.243Z,4.11
2019-03-27T07:51:00.371Z,4.29
2019-03-27T07:53:35.808Z,4.06
2019-03-27T07:56:10.651Z,4.20
2019-03-27T07:58:46.163Z,3.86
2019-03-27T08:01:22.441Z,4.20
2019-03-27T08:03:58.576Z,4.23
2019-03-27T08:06:33.834Z,4.57
2019-03-27T08:09:29.018Z,4.52
2019-03-27T08:12:05.323Z,4.61
2019-03-27T08:14:42.181Z,5.02
2019-03-27T08:17:16.986Z,5.32
2019-03-27T08:19:51.139Z,4.94
2019-03-27T08:22:25.342Z,4.73
2019-03-27T08:24:59.217Z,4.77
2019-03-27T08:27:36.303Z,5.03
2019-03-27T08:30:15.035Z,4.78
2019-03-27T08:32:49.428Z,5.13
2019-03-27T08:35:24.350Z,4.92
2019-03-27T08:37:58.580Z,4.88
2019-03-27T08:40:34.668Z,5.13
2019-03-27T08:43:20.552Z,5.32
2019-03-27T08:45:45.910Z,5.26
2019-03-27T08:48:20.383Z,5.14
2019-03-27T08:50:54.347Z,5.15
2019-03-27T08:53:28.895Z,4.42
2019-03-27T08:56:04.189Z,4.56
2019-03-27T08:58:38.740Z,4.06
2019-03-27T09:01:13.068Z,4.35
2019-03-27T09:03:47.658Z,4.63
2019-03-27T09:06:32.967Z,4.53
2019-03-27T09:08:58.690Z,4.57
2019-03-27T09:11:33.167Z,4.42
2019-03-27T09:14:07.218Z,4.32
2019-03-27T09:16:40.926Z,4.24
2019-03-27T09:19:15.179Z,4.15
2019-03-27T09:21:49.308Z,4.15
2019-03-27T09:24:23.186Z,4.19
2019-03-27T09:26:57.339Z,4.08
2019-03-27T09:29:31.763Z,4.28
2019-03-27T09:32:06.319Z,3.96
2019-03-27T09:34:40.893Z,4.07
2019-03-27T09:37:17.147Z,3.92
2019-03-27T09:39:51.838Z,3.92
2019-03-27T09:42:27.197Z,4.12
2019-03-27T09:45:02.942Z,4.14
2019-03-27T09:47:37.190Z,4.00
2019-03-27T09:50:12.215Z,3.97
2019-03-27T09:52:46.873Z,4.06
2019-03-27T09:55:21.501Z,4.04
2019-03-27T09:57:56.468Z,4.01
2019-03-27T10:00:57.365Z,4.13
2019-03-27T10:03:31.375Z,3.93
2019-03-27T10:06:05.429Z,3.78
2019-03-27T10:08:58.998Z,3.61
2019-03-27T10:11:34.516Z,3.30
2019-03-27T10:14:08.637Z,3.80
2019-03-27T10:16:42.512Z,3.86
2019-03-27T10:19:18.903Z,3.86
2019-03-27T10:21:53.226Z,3.69
2019-03-27T10:24:46.134Z,3.70
2019-03-27T10:27:19.850Z,3.72
2019-03-27T10:29:53.515Z,3.80
2019-03-27T10:32:28.549Z,3.70
2019-03-27T10:35:02.337Z,3.59
2019-03-27T10:37:37.584Z,3.59
2019-03-27T10:40:15.109Z,3.63
2019-03-27T10:42:48.865Z,3.48
2019-03-27T10:45:22.288Z,3.46
2019-03-27T10:47:56.274Z,3.56
2019-03-27T10:50:31.469Z,3.18
2019-03-27T10:53:05.720Z,3.26
2019-03-27T10:55:41.486Z,3.35
2019-03-27T10:58:15.838Z,3.35
2019-03-27T11:00:49.828Z,3.40
2019-03-27T11:03:28.092Z,3.25
2019-03-27T11:06:03.476Z,3.11
2019-03-27T11:08:40.283Z,3.13
2019-03-27T11:11:14.808Z,3.34
2019-03-27T11:13:48.875Z,3.18
2019-03-27T11:16:22.897Z,3.22
2019-03-27T11:18:59.815Z,3.20
2019-03-27T11:21:32.725Z,3.04
2019-03-27T11:24:06.577Z,3.06
2019-03-27T11:26:40.811Z,3.21
2019-03-27T11:29:17.282Z,3.25
2019-03-27T11:31:51.213Z,3.19
2019-03-27T11:34:25.576Z,3.09
2019-03-27T11:36:59.133Z,2.99
2019-03-27T11:39:32.775Z,2.75
2019-03-27T11:42:06.623Z,2.70
2019-03-27T11:44:43.813Z,2.64
2019-03-27T11:47:18.324Z,2.43
2019-03-27T11:49:52.683Z,2.47
2019-03-27T11:52:29.892Z,2.47
2019-03-27T11:55:05.720Z,2.42
2019-03-27T11:57:39.710Z,2.46
2019-03-27T12:00:14.873Z,2.39
2019-03-27T12:02:49.045Z,2.09
2019-03-27T12:05:22.819Z,2.14
2019-03-27T12:07:56.964Z,2.20
2019-03-27T12:10:32.499Z,2.22
2019-03-27T12:13:07.570Z,2.14
2019-03-27T12:15:48.506Z,2.42
2019-03-27T12:18:26.431Z,2.37
2019-03-27T12:24:08.094Z,2.18
2019-03-27T12:27:03.240Z,2.35
2019-03-27T12:29:28.531Z,2.30
2019-03-27T12:32:03.813Z,2.49
2019-03-27T12:34:45.316Z,2.49
2019-03-27T12:37:22.513Z,2.42
2019-03-27T12:40:00.888Z,2.46
2019-03-27T12:42:37.929Z,2.49
2019-03-27T12:45:13.477Z,2.31
2019-03-27T12:48:07.675Z,2.40
2019-03-27T12:50:46.410Z,2.38
2019-03-27T12:53:26.416Z,2.35
2019-03-27T12:56:03.016Z,2.19
2019-03-27T12:58:41.077Z,2.22
2019-03-27T13:01:16.619Z,1.91
2019-03-27T13:03:51.875Z,1.90
2019-03-27T13:06:30.045Z,2.00
2019-03-27T13:09:05.481Z,2.07
2019-03-27T13:11:41.999Z,2.10
2019-03-27T13:14:18.310Z,2.01
2019-03-27T13:16:58.625Z,2.03
2019-03-27T13:19:39.418Z,2.19
2019-03-27T13:22:14.999Z,2.31
2019-03-27T13:24:52.220Z,2.24
2019-03-27T13:27:27.125Z,2.20
2019-03-27T13:30:02.213Z,1.99
2019-03-27T13:32:37.895Z,2.13
2019-03-27T13:35:13.086Z,2.17
2019-03-27T13:37:47.835Z,2.13
2019-03-27T13:40:23.494Z,2.17
2019-03-27T13:43:04.606Z,2.12
2019-03-27T13:45:42.221Z,2.07
2019-03-27T13:48:17.479Z,1.95
2019-03-27T13:50:57.625Z,1.77
2019-03-27T13:53:34.227Z,1.64
2019-03-27T13:56:15.215Z,1.25
2019-03-27T13:58:50.250Z,1.26
2019-03-27T14:01:25.277Z,1.45
2019-03-27T14:04:00.366Z,1.24
2019-03-27T14:06:37.871Z,1.12
2019-03-27T14:09:23.858Z,1.06
2019-03-27T14:12:01.657Z,0.97
2019-03-27T14:14:49.657Z,0.73
2019-03-27T14:17:23.698Z,0.84
2019-03-27T14:20:03.902Z,0.77
2019-03-27T14:22:43.628Z,0.63
2019-03-27T14:25:22.132Z,0.70
2019-03-27T14:27:56.088Z,0.70
2019-03-27T14:30:53.405Z,0.79
2019-03-27T14:33:27.354Z,0.51
2019-03-27T14:36:01.024Z,0.61
2019-03-27T14:38:37.085Z,0.39
2019-03-27T14:41:11.156Z,0.51
2019-03-27T14:43:45.258Z,0.45
2019-03-27T14:46:19.025Z,0.39
2019-03-27T14:48:52.824Z,0.52
2019-03-27T14:51:26.936Z,0.29
2019-03-27T14:54:01.293Z,0.23
2019-03-27T14:56:36.534Z,0.29
2019-03-27T14:59:14.750Z,0.28
2019-03-27T15:01:51.859Z,0.38
2019-03-27T15:04:26.584Z,0.36
2019-03-27T15:07:01.148Z,0.35
2019-03-27T15:09:40.927Z,0.26
2019-03-27T15:12:17.035Z,0.02
2019-03-27T15:14:52.413Z,0.00
2019-03-27T15:17:31.879Z,-0.14
2019-03-27T15:20:06.950Z,-0.04
2019-03-27T15:22:40.875Z,0.12
2019-03-27T15:25:16.494Z,-0.04
2019-03-27T15:27:50.262Z,-0.17
2019-03-27T15:30:24.492Z,-0.22
2019-03-27T15:32:58.073Z,-0.05
2019-03-27T15:35:31.638Z,0.00
2019-03-27T15:38:05.506Z,-0.17
2019-03-27T15:40:46.828Z,-0.21
2019-03-27T15:43:20.393Z,-0.31
2019-03-27T15:45:53.985Z,-0.12
2019-03-27T15:48:27.720Z,-0.07
2019-03-27T15:51:01.414Z,0.02
2019-03-27T15:53:35.240Z,-0.17
2019-03-27T15:56:09.071Z,-0.08
2019-03-27T15:58:42.765Z,-0.18
2019-03-27T16:01:16.380Z,-0.23
2019-03-27T16:03:49.927Z,-0.33
2019-03-27T16:06:23.678Z,-0.33
2019-03-27T16:08:57.627Z,-0.16
2019-03-27T16:11:33.000Z,-0.17
2019-03-27T16:14:07.972Z,-0.10
2019-03-27T16:16:41.381Z,-0.18
2019-03-27T16:19:14.932Z,-0.21
2019-03-27T16:21:48.498Z,-0.42
2019-03-27T16:24:22.376Z,-0.26
2019-03-27T16:27:04.315Z,-0.28
2019-03-27T16:29:30.765Z,-0.42
2019-03-27T16:32:04.413Z,-0.32
2019-03-27T16:34:38.312Z,-0.17
2019-03-27T16:37:12.115Z,-0.34
2019-03-27T16:39:45.920Z,-0.27
2019-03-27T16:42:21.035Z,-0.23
2019-03-27T16:44:54.703Z,-0.41
2019-03-27T16:47:28.165Z,-0.28
2019-03-27T16:50:01.788Z,-0.34
2019-03-27T16:52:35.152Z,-0.20
2019-03-27T16:55:10.042Z,-0.26
2019-03-27T16:57:43.592Z,-0.35
2019-03-27T17:00:19.006Z,-0.37
2019-03-27T17:02:52.365Z,-0.38
2019-03-27T17:05:25.949Z,-0.29
2019-03-27T17:07:59.623Z,-0.22
2019-03-27T17:10:33.274Z,-0.30
2019-03-27T17:13:06.930Z,-0.43
2019-03-27T17:15:41.006Z,-0.21
2019-03-27T17:18:16.667Z,-0.30
2019-03-27T17:20:50.274Z,-0.19
2019-03-27T17:23:23.711Z,-0.19
2019-03-27T17:25:57.483Z,-0.33
2019-03-27T17:28:31.030Z,-0.43
2019-03-27T17:31:04.789Z,-0.60
2019-03-27T17:33:40.478Z,-0.53
2019-03-27T17:36:14.135Z,-0.45
2019-03-27T17:38:49.830Z,-0.38
2019-03-27T17:41:23.640Z,-0.57
2019-03-27T17:43:59.302Z,-0.42
2019-03-27T17:46:32.996Z,-0.33
2019-03-27T17:49:06.742Z,-0.21
2019-03-27T17:51:41.715Z,-0.26
2019-03-27T17:54:20.757Z,-0.36
2019-03-27T17:56:50.363Z,-0.32
2019-03-27T17:59:29.368Z,-0.41
2019-03-27T18:02:02.903Z,-0.38
2019-03-27T18:04:36.911Z,-0.36
2019-03-27T18:07:10.257Z,-0.28
2019-03-27T18:09:43.768Z,-0.38
2019-03-27T18:12:18.732Z,-0.37
2019-03-27T18:14:52.821Z,-0.41
2019-03-27T18:17:26.465Z,-0.38
2019-03-27T18:20:00.052Z,-0.32
2019-03-27T18:22:34.262Z,-0.35
2019-03-27T18:25:08.635Z,-0.39
2019-03-27T18:27:42.380Z,-0.38
2019-03-27T18:30:16.056Z,-0.38
2019-03-27T18:32:51.253Z,-0.37
2019-03-27T18:35:25.015Z,-0.30
2019-03-27T18:38:05.649Z,-0.38
2019-03-27T18:40:39.236Z,-0.36
2019-03-27T18:43:12.588Z,-0.49
2019-03-27T18:45:46.456Z,-0.39
2019-03-27T18:48:20.302Z,-0.43
2019-03-27T18:50:53.866Z,-0.43
2019-03-27T18:53:29.176Z,-0.53
2019-03-27T18:56:02.791Z,-0.46
2019-03-27T18:58:36.637Z,-0.53
2019-03-27T19:01:10.399Z,-0.55
2019-03-27T19:03:43.945Z,-0.60
2019-03-27T19:06:17.643Z,-0.55
2019-03-27T19:08:51.281Z,-0.55
2019-03-27T19:11:26.246Z,-0.62
2019-03-27T19:13:59.766Z,-0.67
2019-03-27T19:16:33.524Z,-0.68
2019-03-27T19:19:09.471Z,-0.69
2019-03-27T19:21:44.528Z,-0.79
2019-03-27T19:24:17.837Z,-0.77
2019-03-27T19:26:51.521Z,-0.83
2019-03-27T19:29:25.297Z,-0.91
2019-03-27T19:31:59.055Z,-0.83
2019-03-27T19:34:32.833Z,-0.74
2019-03-27T19:37:06.325Z,-0.72
2019-03-27T19:39:40.087Z,-0.78
2019-03-27T19:42:14.225Z,-0.81
2019-03-27T19:44:47.811Z,-0.80
2019-03-27T19:47:21.765Z,-0.75
2019-03-27T19:49:55.305Z,-0.93
2019-03-27T19:52:29.060Z,-0.93
2019-03-27T19:55:02.855Z,-0.95
2019-03-27T19:57:36.732Z,-0.90
2019-03-27T20:00:14.144Z,-0.98
2019-03-27T20:02:47.802Z,-1.08
2019-03-27T20:05:21.409Z,-1.08
2019-03-27T20:07:55.108Z,-1.04
2019-03-27T20:10:28.811Z,-1.05
2019-03-27T20:13:02.607Z,-1.01
2019-03-27T20:15:36.172Z,-1.13
2019-03-27T20:18:09.747Z,-1.15
2019-03-27T20:20:43.227Z,-1.01
2019-03-27T20:23:17.057Z,-1.17
2019-03-27T20:25:50.505Z,-1.28
2019-03-27T20:28:24.165Z,-1.43
2019-03-27T20:30:57.937Z,-1.44
2019-03-27T20:33:31.792Z,-1.32
2019-03-27T20:36:05.502Z,-1.48
2019-03-27T20:38:38.986Z,-1.55
2019-03-27T20:41:12.339Z,-1.52
2019-03-27T20:43:46.992Z,-1.50
2019-03-27T20:46:25.570Z,-1.49
2019-03-27T20:48:56.109Z,-1.38
2019-03-27T20:51:29.797Z,-1.40
2019-03-27T20:54:03.300Z,-1.54
2019-03-27T20:56:37.195Z,-1.47
2019-03-27T20:59:10.835Z,-1.54
2019-03-27T21:01:44.245Z,-1.62
2019-03-27T21:04:17.898Z,-1.51
2019-03-27T21:06:51.672Z,-1.44
2019-03-27T21:09:25.352Z,-1.60
2019-03-27T21:11:59.318Z,-1.71
2019-03-27T21:14:32.827Z,-1.61
2019-03-27T21:17:08.328Z,-1.62
2019-03-27T21:19:42.514Z,-1.64
2019-03-27T21:22:16.774Z,-1.62
2019-03-27T21:24:50.193Z,-1.78
2019-03-27T21:27:23.758Z,-1.78
2019-03-27T21:29:58.660Z,-1.65
2019-03-27T21:32:32.296Z,-1.69
2019-03-27T21:35:07.198Z,-1.77
2019-03-27T21:37:40.979Z,-1.74
2019-03-27T21:40:14.938Z,-1.73
2019-03-27T21:42:49.782Z,-1.69
2019-03-27T21:45:23.600Z,-1.58
2019-03-27T21:47:57.383Z,-1.70
2019-03-27T21:50:31.192Z,-1.82
2019-03-27T21:53:04.741Z,-1.73
2019-03-27T21:55:42.886Z,-1.72
2019-03-27T21:58:14.533Z,-1.73
2019-03-27T22:00:48.248Z,-1.89
2019-03-27T22:03:21.559Z,-1.82
2019-03-27T22:05:55.183Z,-1.88
2019-03-27T22:08:30.244Z,-1.73
2019-03-27T22:11:04.113Z,-1.76
2019-03-27T22:13:38.116Z,-1.74
2019-03-27T22:16:11.901Z,-1.71
2019-03-27T22:18:45.499Z,-1.40
2019-03-27T22:21:38.576Z,-1.35
2019-03-27T22:24:11.767Z,-1.31
2019-03-27T22:26:46.198Z,-0.96
2019-03-27T22:29:20.795Z,-0.61
2019-03-27T22:31:54.559Z,-0.36
2019-03-27T22:34:28.718Z,-0.73
2019-03-27T22:37:02.587Z,-1.25
2019-03-27T22:39:37.625Z,-1.20
2019-03-27T22:42:10.987Z,-1.06
2019-03-27T22:44:44.440Z,-0.54
2019-03-27T22:47:18.078Z,-0.63
2019-03-27T22:49:51.924Z,-0.43
2019-03-27T22:52:27.418Z,-0.29
2019-03-27T22:55:00.887Z,0.05
2019-03-27T22:57:34.374Z,0.02
2019-03-27T23:00:12.439Z,-0.52
2019-03-27T23:02:46.035Z,-0.22
2019-03-27T23:05:19.764Z,-0.07
2019-03-27T23:10:20.173Z,0.41
2019-03-27T23:12:53.858Z,0.55
2019-03-27T23:15:27.799Z,0.21
2019-03-27T23:18:01.439Z,0.66
2019-03-27T23:20:35.059Z,1.13
2019-03-27T23:23:08.741Z,1.80
2019-03-27T23:26:03.692Z,1.39
2019-03-27T23:28:37.463Z,1.03
2019-03-27T23:31:11.189Z,0.88
2019-03-27T23:33:44.644Z,0.92
2019-03-27T23:36:20.293Z,1.11
2019-03-27T23:38:53.799Z,1.15
2019-03-27T23:41:27.330Z,1.59
2019-03-27T23:44:00.722Z,1.34
2019-03-27T23:46:34.419Z,1.14
2019-03-27T23:49:08.404Z,0.94
2019-03-27T23:51:43.754Z,0.94
2019-03-27T23:54:17.400Z,0.99
2019-03-27T23:56:51.290Z,0.52
2019-03-27T23:59:26.629Z,0.72
